Time;durP1;ratioP1;P1;durP2;ratioP2;P2;SDS_P1;SDS_P2;PMS_P1;PMS_P2;Temp;Humidity;BMP_temperature;BMP_pressure;BME280_temperature;BME280_humidity;BME280_pressure;Samples;Min_cycle;Max_cycle;Signal;HPM_P1;HPM_P2
2021/05/26 00:00:21;;;;;;;1.90;1.80;;;;;;;7.45;86.64;100696.72;5060823;28;20410;-83
2021/05/26 00:02:47;;;;;;;1.83;1.73;;;;;;;7.46;87.67;100688.06;5044912;28;20047;-82
2021/05/26 00:05:12;;;;;;;2.80;1.65;;;;;;;7.53;86.23;100681.09;5059087;28;20345;-82
2021/05/26 00:07:37;;;;;;;1.83;1.40;;;;;;;7.67;85.79;100678.44;5060895;28;20028;-84
2021/05/26 00:10:04;;;;;;;1.90;1.77;;;;;;;7.76;86.04;100674.06;5060480;28;20039;-82
2021/05/26 00:12:30;;;;;;;1.63;1.52;;;;;;;7.67;86.60;100675.84;5044564;28;20060;-83
2021/05/26 00:14:55;;;;;;;1.50;1.40;;;;;;;7.52;86.74;100672.41;5060896;28;20110;-82
2021/05/26 00:17:20;;;;;;;1.73;1.60;;;;;;;7.65;85.84;100672.38;5060050;28;20032;-77
2021/05/26 00:19:46;;;;;;;1.90;1.80;;;;;;;7.50;86.17;100663.78;5059218;28;20070;-81
2021/05/26 00:22:11;;;;;;;1.65;1.55;;;;;;;7.53;86.78;100662.91;5041509;28;20024;-79
2021/05/26 00:24:36;;;;;;;2.10;1.90;;;;;;;7.53;86.76;100662.91;5059760;28;20024;-79
2021/05/26 00:27:02;;;;;;;2.05;1.95;;;;;;;7.57;86.59;100667.22;5042749;28;20052;-81
2021/05/26 00:29:30;;;;;;;2.05;1.95;;;;;;;7.45;87.02;100658.59;5042964;28;20325;-82
2021/05/26 00:31:56;;;;;;;2.97;2.70;;;;;;;7.42;87.36;100657.75;5060230;28;20337;-81
2021/05/26 00:34:21;;;;;;;2.90;2.70;;;;;;;7.45;86.60;100655.97;5045369;28;20031;-83
2021/05/26 00:36:46;;;;;;;2.40;2.20;;;;;;;7.51;87.87;100659.44;5079327;28;20029;-83
2021/05/26 00:39:12;;;;;;;2.65;2.55;;;;;;;7.57;87.41;100649.03;5044891;28;20032;-83
2021/05/26 00:41:37;;;;;;;3.03;2.83;;;;;;;7.54;87.21;100656.81;5044049;28;20039;-82
2021/05/26 00:44:05;;;;;;;2.92;2.65;;;;;;;7.44;87.79;100659.47;5045232;28;20063;-82
2021/05/26 00:46:39;;;;;;;3.15;2.85;;;;;;;7.57;87.15;100655.06;5063988;28;20115;-82
2021/05/26 00:49:05;;;;;;;3.58;3.38;;;;;;;7.53;87.82;100653.38;5060338;28;20035;-82
2021/05/26 00:51:30;;;;;;;2.85;2.65;;;;;;;7.60;87.98;100649.84;5061012;28;20024;-82
2021/05/26 00:53:55;;;;;;;3.83;3.47;;;;;;;7.47;87.28;100648.19;5059925;28;20025;-80
2021/05/26 00:56:21;;;;;;;4.07;3.88;;;;;;;7.55;87.11;100646.44;5043059;28;20020;-81
2021/05/26 00:58:46;;;;;;;3.72;3.50;;;;;;;7.61;87.32;100636.00;5042816;28;20376;-81
2021/05/26 01:01:11;;;;;;;3.25;3.15;;;;;;;7.64;86.89;100634.25;5042798;28;20410;-81
2021/05/26 01:03:37;;;;;;;3.60;3.40;;;;;;;7.56;87.91;100632.53;5059942;28;20016;-82
2021/05/26 01:06:02;;;;;;;4.13;3.92;;;;;;;7.55;87.44;100630.84;5059949;28;20024;-82
2021/05/26 01:08:27;;;;;;;4.75;4.50;;;;;;;7.55;87.74;100638.63;5060579;28;20021;-82
2021/05/26 01:10:53;;;;;;;4.68;4.40;;;;;;;7.65;87.40;100639.44;5043212;28;20067;-82
2021/05/26 01:13:19;;;;;;;4.72;4.40;;;;;;;7.59;88.20;100637.75;5056033;28;20063;-84
2021/05/26 01:15:45;;;;;;;4.97;4.63;;;;;;;7.53;88.53;100636.91;5056790;28;20021;-82
2021/05/26 01:18:18;;;;;;;4.95;4.63;;;;;;;7.69;87.49;100633.38;5057199;28;20021;-83
2021/05/26 01:20:43;;;;;;;5.32;4.47;;;;;;;7.65;87.16;100636.84;5055833;28;20032;-81
2021/05/26 01:23:09;;;;;;;5.05;4.75;;;;;;;7.71;87.46;100641.16;5055585;28;20025;-79
2021/05/26 01:25:34;;;;;;;4.47;4.22;;;;;;;7.71;87.27;100626.41;5055218;28;20021;-79
2021/05/26 01:27:59;;;;;;;4.45;4.25;;;;;;;7.80;87.50;100630.72;5054240;28;20036;-78
2021/05/26 01:30:25;;;;;;;5.40;4.97;;;;;;;7.87;87.06;100632.38;5055149;28;20021;-80
2021/05/26 01:32:53;;;;;;;4.95;4.75;;;;;;;7.83;87.82;100624.63;5055121;28;20323;-79
2021/05/26 01:35:19;;;;;;;5.00;4.68;;;;;;;7.77;87.50;100626.38;5055028;28;20025;-79
2021/05/26 01:37:46;;;;;;;5.65;5.25;;;;;;;7.72;88.27;100614.28;5054831;28;20025;-79
2021/05/26 01:40:13;;;;;;;5.70;4.93;;;;;;;7.85;87.25;100618.50;5037801;28;20029;-79
2021/05/26 01:42:39;;;;;;;5.47;5.07;;;;;;;7.90;86.63;100624.56;5054528;28;20033;-79
2021/05/26 01:45:10;;;;;;;6.25;5.78;;;;;;;7.72;87.80;100616.88;5055178;28;20052;-79
2021/05/26 01:47:35;;;;;;;5.60;5.10;;;;;;;7.91;87.28;100617.63;5054672;28;20033;-79
2021/05/26 01:50:01;;;;;;;5.78;5.28;;;;;;;7.83;86.91;100625.47;5053910;28;20021;-79
2021/05/26 01:52:26;;;;;;;6.20;5.47;;;;;;;7.83;88.40;100620.28;5055179;28;20021;-79
2021/05/26 01:54:51;;;;;;;6.57;6.07;;;;;;;7.86;87.40;100620.25;5054761;28;20025;-80
2021/05/26 01:57:17;;;;;;;6.95;6.00;;;;;;;7.87;87.11;100615.94;5056478;28;20040;-81
2021/05/26 01:59:42;;;;;;;6.05;5.40;;;;;;;7.83;87.54;100615.06;5054496;28;20032;-80
2021/05/26 02:02:08;;;;;;;6.40;6.00;;;;;;;7.82;88.36;100617.69;5038561;28;20040;-80
2021/05/26 02:04:34;;;;;;;5.85;5.55;;;;;;;7.77;87.96;100615.09;5054598;28;20021;-79
2021/05/26 02:07:09;;;;;;;7.20;6.70;;;;;;;7.80;88.54;100617.72;5054776;28;20119;-79
2021/05/26 02:09:35;;;;;;;5.75;5.40;;;;;;;7.87;87.58;100619.38;5054335;28;20033;-80
2021/05/26 02:14:46;;;;;;;6.35;5.95;;;;;;;7.76;87.38;100610.78;5055176;28;20036;-81
2021/05/26 02:17:14;;;;;;;6.13;5.72;;;;;;;7.79;87.71;100610.78;5054506;28;20025;-80
2021/05/26 02:19:39;;;;;;;6.80;6.22;;;;;;;7.75;87.42;100609.06;5055745;28;20291;-80
2021/05/26 02:22:04;;;;;;;6.70;6.03;;;;;;;7.79;88.66;100618.56;5036883;28;20047;-77
2021/05/26 02:24:29;;;;;;;6.47;5.95;;;;;;;7.83;89.39;100607.28;5053132;28;20064;-77
2021/05/26 02:26:55;;;;;;;6.50;5.90;;;;;;;7.92;88.71;100609.81;5035586;28;20330;-78
2021/05/26 02:29:20;;;;;;;6.43;6.03;;;;;;;7.92;87.74;100604.63;5056435;28;20021;-78
2021/05/26 02:31:46;;;;;;;6.03;5.63;;;;;;;7.85;89.04;100612.47;5039845;28;20025;-78
2021/05/26 02:34:11;;;;;;;6.32;5.78;;;;;;;7.78;88.41;100602.13;5039643;28;20021;-77
2021/05/26 02:36:38;;;;;;;6.05;5.50;;;;;;;7.78;87.97;100601.22;5056300;28;20124;-78
2021/05/26 02:39:05;;;;;;;6.47;5.97;;;;;;;7.82;88.36;100597.75;5056013;28;20150;-78
2021/05/26 02:41:30;;;;;;;7.25;6.85;;;;;;;7.77;88.50;100604.69;5056708;28;20032;-78
2021/05/26 02:43:55;;;;;;;6.45;5.97;;;;;;;7.66;87.95;100601.31;5056663;28;20029;-78
2021/05/26 02:46:21;;;;;;;8.38;7.65;;;;;;;7.66;88.85;100602.16;5056359;28;20029;-78
2021/05/26 02:48:46;;;;;;;8.07;7.47;;;;;;;7.59;89.61;100595.28;5057281;28;20056;-78
2021/05/26 02:51:11;;;;;;;7.20;6.75;;;;;;;7.59;89.08;100598.75;5040075;28;20287;-78
2021/05/26 02:53:37;;;;;;;7.97;7.38;;;;;;;7.51;90.18;100591.84;5056455;28;20032;-78
2021/05/26 02:56:02;;;;;;;7.68;7.18;;;;;;;7.49;91.03;100598.81;5056682;28;20484;-78
2021/05/26 02:58:27;;;;;;;8.55;7.85;;;;;;;7.52;91.25;100604.84;5056061;28;20040;-78
2021/05/26 03:00:53;;;;;;;6.85;6.38;;;;;;;7.58;89.67;100601.34;5057863;28;20032;-78
2021/05/26 03:03:18;;;;;;;7.13;6.35;;;;;;;7.54;89.41;100600.50;5056887;28;20017;-78
2021/05/26 03:05:43;;;;;;;6.32;5.82;;;;;;;7.61;90.69;100591.81;5055907;28;20047;-78
2021/05/26 03:08:09;;;;;;;6.40;6.00;;;;;;;7.57;90.69;100600.50;5055048;28;20084;-78
2021/05/26 03:10:35;;;;;;;6.38;5.88;;;;;;;7.55;90.40;100597.06;5053828;28;20032;-78
2021/05/26 03:13:00;;;;;;;7.13;6.53;;;;;;;7.66;89.99;100596.97;5054494;28;20163;-78
2021/05/26 03:15:25;;;;;;;6.72;6.20;;;;;;;7.62;89.70;100592.66;5054837;28;20074;-79
2021/05/26 03:17:51;;;;;;;7.80;7.25;;;;;;;7.56;90.66;100611.75;5054778;28;20415;-79
2021/05/26 03:20:17;;;;;;;7.95;7.25;;;;;;;7.63;90.53;100606.53;5055661;28;20029;-78
2021/05/26 03:22:42;;;;;;;8.63;7.82;;;;;;;7.70;89.42;100608.22;5055301;28;20052;-78
2021/05/26 03:25:10;;;;;;;8.27;7.53;;;;;;;7.69;88.96;100596.09;5054049;28;20017;-78
2021/05/26 03:27:36;;;;;;;9.07;8.27;;;;;;;7.59;89.74;100600.47;5070075;28;20025;-78
2021/05/26 03:30:05;;;;;;;8.50;7.90;;;;;;;7.67;89.44;100585.69;5053184;28;20109;-78
2021/05/26 03:32:30;;;;;;;7.65;7.05;;;;;;;7.69;89.18;100590.88;5053617;28;20032;-78
2021/05/26 03:34:58;;;;;;;8.40;7.70;;;;;;;7.70;89.37;100590.91;5054334;28;20013;-79
2021/05/26 03:37:24;;;;;;;9.02;8.43;;;;;;;7.62;90.07;100590.06;5055125;28;20400;-80
2021/05/26 03:39:49;;;;;;;8.45;7.78;;;;;;;7.60;89.87;100589.22;5054926;28;20136;-79
2021/05/26 03:42:14;;;;;;;9.00;7.93;;;;;;;7.68;89.83;100587.44;5055907;28;20025;-79
2021/05/26 03:44:39;;;;;;;8.75;8.15;;;;;;;7.68;89.04;100594.38;5055752;28;20037;-79
2021/05/26 03:47:05;;;;;;;9.98;8.95;;;;;;;7.61;88.92;100581.41;5055239;28;20021;-80
2021/05/26 03:49:30;;;;;;;8.13;7.43;;;;;;;7.74;89.21;100583.94;5037969;28;20036;-79
2021/05/26 03:51:56;;;;;;;11.60;8.43;;;;;;;7.68;88.73;100577.03;5055823;28;20475;-79
2021/05/26 03:54:21;;;;;;;7.85;7.15;;;;;;;7.75;87.98;100575.25;5054781;28;20025;-79
2021/05/26 03:56:46;;;;;;;8.60;8.05;;;;;;;7.62;87.92;100574.44;5054934;28;20035;-79
2021/05/26 03:59:12;;;;;;;8.70;8.05;;;;;;;7.67;89.47;100567.50;5037236;28;20035;-80
2021/05/26 04:01:38;;;;;;;7.75;7.05;;;;;;;7.66;88.81;100572.72;5055250;28;20025;-79
2021/05/26 04:04:04;;;;;;;8.43;7.63;;;;;;;7.64;88.56;100583.13;5057240;28;20032;-79
2021/05/26 04:06:29;;;;;;;8.38;7.00;;;;;;;7.70;88.62;100574.41;5039477;28;20029;-78
2021/05/26 04:08:54;;;;;;;8.40;7.68;;;;;;;7.78;88.42;100580.44;5057074;28;20025;-78
2021/05/26 04:11:20;;;;;;;9.63;8.80;;;;;;;7.84;88.15;100577.81;5055956;28;20032;-79
2021/05/26 04:13:45;;;;;;;8.82;8.13;;;;;;;7.94;87.65;100579.44;5056291;28;20051;-78
2021/05/26 04:16:10;;;;;;;8.27;7.63;;;;;;;8.00;87.21;100588.09;5057234;28;20406;-80
2021/05/26 04:18:37;;;;;;;9.88;8.35;;;;;;;7.93;87.09;100580.34;5055006;28;20059;-78
2021/05/26 04:21:02;;;;;;;8.90;8.05;;;;;;;8.01;86.70;100584.63;5055840;28;20037;-78
2021/05/26 04:23:27;;;;;;;8.55;7.97;;;;;;;7.87;87.41;100579.53;5055224;28;20029;-79
2021/05/26 04:25:53;;;;;;;9.48;8.63;;;;;;;7.90;86.47;100577.75;5055311;28;20434;-79
2021/05/26 04:28:19;;;;;;;8.85;7.97;;;;;;;7.98;86.53;100582.06;5055601;28;20032;-79
2021/05/26 04:30:46;;;;;;;10.57;8.00;;;;;;;8.17;85.86;100573.22;5055618;28;20060;-79
2021/05/26 04:33:11;;;;;;;9.00;8.07;;;;;;;8.09;86.64;100575.03;5055837;28;20338;-79
2021/05/26 04:35:37;;;;;;;8.48;7.80;;;;;;;8.07;86.46;100577.63;5054799;28;20025;-79
2021/05/26 04:38:02;;;;;;;8.30;7.53;;;;;;;8.11;85.25;100573.25;5039462;28;20433;-78
2021/05/26 04:40:27;;;;;;;9.20;7.68;;;;;;;8.05;85.48;100578.53;5055646;28;20031;-79
2021/05/26 04:42:53;;;;;;;10.75;8.40;;;;;;;7.86;86.09;100565.63;5056582;28;20032;-78
2021/05/26 04:45:18;;;;;;;10.30;7.90;;;;;;;8.03;87.15;100567.25;5056540;28;20036;-79
2021/05/26 04:47:45;;;;;;;8.40;7.28;;;;;;;8.18;85.35;100555.84;5055957;28;20032;-78
2021/05/26 04:50:14;;;;;;;7.55;6.97;;;;;;;8.40;83.95;100567.81;5054269;28;20075;-79
2021/05/26 04:52:39;;;;;;;7.82;6.93;;;;;;;8.45;83.38;100563.47;5055688;28;20501;-78
2021/05/26 04:55:05;;;;;;;7.75;7.13;;;;;;;8.37;84.94;100553.94;5055992;28;20033;-78
2021/05/26 04:57:30;;;;;;;8.05;7.32;;;;;;;8.29;84.31;100552.28;5039202;28;20135;-79
2021/05/26 04:59:55;;;;;;;7.68;7.15;;;;;;;8.27;84.81;100558.38;5037949;28;20264;-78
2021/05/26 05:02:23;;;;;;;8.45;7.75;;;;;;;8.22;84.25;100560.16;5056071;28;20025;-78
2021/05/26 05:04:48;;;;;;;7.25;6.68;;;;;;;8.38;84.57;100566.09;5055917;28;20080;-79
2021/05/26 05:07:14;;;;;;;7.43;6.70;;;;;;;8.52;84.58;100563.38;5056129;28;20112;-79
2021/05/26 05:09:39;;;;;;;8.45;7.75;;;;;;;8.45;84.58;100565.19;5055444;28;20025;-78
2021/05/26 05:12:05;;;;;;;9.25;8.13;;;;;;;8.51;84.27;100564.25;5038880;28;20017;-78
2021/05/26 05:14:30;;;;;;;8.95;8.35;;;;;;;8.19;84.24;100566.25;5055901;28;20028;-79
2021/05/26 05:16:56;;;;;;;9.60;8.45;;;;;;;8.35;83.72;100566.13;5056582;28;20056;-79
2021/05/26 05:19:21;;;;;;;10.38;9.32;;;;;;;8.11;84.68;100562.84;5055309;28;20029;-79
2021/05/26 05:21:46;;;;;;;12.38;8.25;;;;;;;8.33;84.82;100562.66;5054455;28;20025;-78
2021/05/26 05:24:12;;;;;;;9.85;9.15;;;;;;;8.34;84.85;100569.59;5038292;28;20025;-78
2021/05/26 05:26:37;;;;;;;8.43;7.70;;;;;;;8.43;84.65;100564.31;5039214;28;20025;-79
2021/05/26 05:29:02;;;;;;;9.13;8.30;;;;;;;8.39;84.70;100567.84;5039822;28;20039;-79
2021/05/26 05:31:30;;;;;;;8.27;7.57;;;;;;;8.52;84.86;100561.66;5040263;28;20052;-80
2021/05/26 05:33:56;;;;;;;7.40;6.70;;;;;;;8.73;83.92;100563.16;5057046;28;20088;-80
2021/05/26 05:36:21;;;;;;;8.05;6.53;;;;;;;8.94;82.31;100559.47;5039369;28;20103;-78
2021/05/26 05:38:46;;;;;;;8.77;7.28;;;;;;;8.85;81.60;100556.97;5056763;28;20029;-80
2021/05/26 05:41:12;;;;;;;8.30;7.70;;;;;;;8.66;82.93;100551.09;5048064;28;20049;-80
2021/05/26 05:43:37;;;;;;;7.63;7.13;;;;;;;8.79;82.31;100557.03;5048953;28;20025;-79
2021/05/26 05:46:03;;;;;;;8.23;7.63;;;;;;;8.76;82.75;100554.47;5050893;28;20025;-78
2021/05/26 05:48:28;;;;;;;8.90;8.07;;;;;;;8.69;81.91;100555.41;5111141;23;20036;-78
2021/05/26 05:50:53;;;;;;;8.82;8.02;;;;;;;8.63;82.53;100549.41;5103487;28;20110;-81
2021/05/26 05:53:18;;;;;;;9.73;7.25;;;;;;;8.74;82.51;100548.41;5117664;28;20414;-81
2021/05/26 05:55:44;;;;;;;8.30;7.50;;;;;;;8.90;82.07;100557.78;5117844;28;20021;-82
2021/05/26 05:58:11;;;;;;;8.90;8.13;;;;;;;8.98;82.24;100541.19;5118377;28;20034;-80
2021/05/26 06:00:38;;;;;;;8.57;7.88;;;;;;;8.78;82.48;100545.75;5137125;28;20030;-81
2021/05/26 06:03:03;;;;;;;8.02;7.43;;;;;;;8.76;82.28;100547.50;5104952;27;20049;-79
2021/05/26 06:05:29;;;;;;;8.70;7.82;;;;;;;8.61;83.71;100552.88;5124381;27;20015;-81
2021/05/26 06:07:54;;;;;;;11.32;8.23;;;;;;;8.62;82.52;100545.06;5125095;27;20023;-84
2021/05/26 06:10:19;;;;;;;9.30;8.50;;;;;;;8.68;82.92;100546.72;5106627;27;20027;-81
2021/05/26 06:12:47;;;;;;;8.52;7.93;;;;;;;8.76;83.23;100542.28;5120826;27;20050;-79
2021/05/26 06:15:12;;;;;;;8.10;7.50;;;;;;;9.12;81.10;100532.34;5124057;27;20025;-80
2021/05/26 06:17:38;;;;;;;8.63;7.93;;;;;;;9.18;81.69;100533.16;5122304;27;20431;-81
2021/05/26 06:20:04;;;;;;;8.30;7.38;;;;;;;9.37;80.28;100525.94;5104932;27;20031;-81
2021/05/26 06:22:29;;;;;;;7.22;6.82;;;;;;;8.89;82.14;100529.13;5125780;27;20023;-80
2021/05/26 06:24:54;;;;;;;7.70;7.10;;;;;;;9.21;81.22;100531.34;5121787;27;20366;-79
2021/05/26 06:27:22;;;;;;;7.43;6.78;;;;;;;9.10;82.01;100521.06;5122760;27;20019;-80
2021/05/26 06:29:47;;;;;;;7.65;6.90;;;;;;;9.19;82.75;100521.81;5107393;27;20034;-80
2021/05/26 06:32:13;;;;;;;9.10;7.63;;;;;;;8.92;84.14;100511.72;5126895;27;20342;-80
2021/05/26 06:34:38;;;;;;;8.68;8.07;;;;;;;8.67;85.59;100518.09;5104054;28;20032;-81
2021/05/26 06:37:04;;;;;;;8.02;7.32;;;;;;;8.63;86.33;100520.75;5104207;28;20050;-83
2021/05/26 06:39:29;;;;;;;12.25;8.35;;;;;;;8.41;86.45;100520.09;5086095;28;20334;-84
2021/05/26 06:41:55;;;;;;;9.18;8.38;;;;;;;8.29;87.70;100534.06;5084957;28;20102;-83
2021/05/26 06:44:20;;;;;;;7.90;7.20;;;;;;;8.40;87.43;100533.97;5101687;28;20110;-84
2021/05/26 06:46:46;;;;;;;7.00;6.50;;;;;;;8.32;87.87;100519.28;5095928;27;20058;-83
2021/05/26 06:49:11;;;;;;;11.00;6.65;;;;;;;8.40;87.36;100520.97;5122279;27;20028;-82
2021/05/26 06:51:36;;;;;;;7.32;6.05;;;;;;;8.35;87.47;100525.34;5116854;28;20419;-82
2021/05/26 06:54:06;;;;;;;9.55;7.35;;;;;;;8.06;89.05;100528.22;5083027;28;20423;-83
2021/05/26 06:56:34;;;;;;;6.93;6.32;;;;;;;8.10;88.79;100522.13;5099998;27;20019;-84
2021/05/26 06:58:59;;;;;;;6.78;6.22;;;;;;;7.93;88.67;100512.72;5109736;27;20027;-87
2021/05/26 07:01:25;;;;;;;5.47;5.18;;;;;;;7.68;88.83;100521.59;5094414;28;20464;-81
2021/05/26 07:03:50;;;;;;;5.03;4.55;;;;;;;7.62;88.72;100519.84;5084926;28;20434;-86
2021/05/26 07:06:16;;;;;;;4.13;3.92;;;;;;;7.70;89.21;100509.41;5093682;27;20031;-78
2021/05/26 07:08:41;;;;;;;4.15;3.83;;;;;;;7.81;90.15;100506.75;5120987;27;20322;-79
2021/05/26 07:11:07;;;;;;;3.17;2.97;;;;;;;7.75;90.17;100497.25;5084342;28;20031;-79
2021/05/26 07:13:32;;;;;;;2.78;2.58;;;;;;;7.38;89.74;100507.91;5089963;27;20322;-78
2021/05/26 07:15:57;;;;;;;3.03;2.83;;;;;;;7.54;90.24;100516.44;5106210;28;20161;-84
2021/05/26 07:18:23;;;;;;;3.25;2.97;;;;;;;7.47;90.25;100507.81;5095158;27;20060;-81
2021/05/26 07:20:53;;;;;;;5.25;3.95;;;;;;;7.28;89.39;100504.50;5084894;28;20023;-80
2021/05/26 07:23:19;;;;;;;4.30;3.97;;;;;;;7.41;92.05;100513.94;5090831;28;20026;-80
2021/05/26 07:25:44;;;;;;;5.45;4.95;;;;;;;7.41;92.18;100510.47;5099632;27;20027;-79
2021/05/26 07:28:13;;;;;;;4.45;4.15;;;;;;;7.50;92.42;100504.34;5110687;28;20027;-78
2021/05/26 07:30:39;;;;;;;3.95;2.75;;;;;;;7.33;91.15;100497.53;5102674;27;20026;-78
2021/05/26 07:33:05;;;;;;;4.05;3.30;;;;;;;7.28;91.24;100510.56;5088954;28;20023;-81
2021/05/26 07:35:31;;;;;;;3.15;2.95;;;;;;;7.32;90.27;100502.72;5100056;27;20311;-79
2021/05/26 07:37:56;;;;;;;3.15;2.97;;;;;;;7.34;91.85;100496.66;5106995;28;20025;-80
2021/05/26 07:40:21;;;;;;;5.13;3.58;;;;;;;7.38;92.12;100497.50;5102798;27;20114;-80
2021/05/26 07:42:47;;;;;;;3.83;3.53;;;;;;;7.57;92.61;100499.09;5104300;28;20023;-82
2021/05/26 07:45:12;;;;;;;4.03;3.53;;;;;;;7.81;93.20;100507.59;5090972;28;20046;-81
2021/05/26 07:47:38;;;;;;;4.25;4.00;;;;;;;7.99;92.71;100495.31;5095150;28;20020;-84
2021/05/26 07:50:05;;;;;;;6.90;6.40;;;;;;;8.11;92.37;100500.41;5098219;28;20353;-82
2021/05/26 07:52:30;;;;;;;6.45;6.05;;;;;;;8.36;91.92;100489.78;5094623;27;20031;-82
2021/05/26 07:54:57;;;;;;;12.43;8.35;;;;;;;8.63;91.64;100488.66;5099362;27;20045;-84
2021/05/26 07:57:22;;;;;;;11.80;9.40;;;;;;;8.76;89.29;100489.34;5116394;27;20098;-84
2021/05/26 07:59:48;;;;;;;12.10;10.82;;;;;;;8.55;89.61;100487.84;5095325;27;20058;-86
2021/05/26 08:02:13;;;;;;;14.40;11.15;;;;;;;8.66;89.94;100482.53;5100581;27;20023;-87
2021/05/26 08:04:39;;;;;;;18.15;13.15;;;;;;;8.57;90.82;100484.34;5100860;27;20023;-82
2021/05/26 08:07:05;;;;;;;14.98;12.23;;;;;;;8.67;90.27;100486.84;5085959;28;20118;-79
2021/05/26 08:09:30;;;;;;;14.20;12.63;;;;;;;8.72;88.94;100487.66;5118655;27;20030;-84
2021/05/26 08:11:55;;;;;;;13.55;11.55;;;;;;;8.91;89.13;100483.94;5102517;27;20019;-84
2021/05/26 08:14:22;;;;;;;13.18;11.73;;;;;;;8.90;88.95;100491.78;5101441;27;20419;-81
2021/05/26 08:16:47;;;;;;;15.75;11.50;;;;;;;9.12;88.02;100484.53;5088107;27;20030;-78
2021/05/26 08:19:12;;;;;;;15.73;11.88;;;;;;;9.38;87.35;100480.72;5092589;28;20020;-81
2021/05/26 08:21:39;;;;;;;18.75;11.98;;;;;;;9.11;87.84;100480.25;5103455;27;20077;-81
2021/05/26 08:24:08;;;;;;;11.55;10.57;;;;;;;9.18;86.64;100481.03;5103852;27;20168;-82
2021/05/26 08:26:35;;;;;;;15.93;11.77;;;;;;;9.00;88.33;100477.78;5085742;27;20059;-83
2021/05/26 08:29:00;;;;;;;13.38;11.52;;;;;;;9.04;88.76;100484.66;5091829;27;20329;-81
2021/05/26 08:31:26;;;;;;;16.52;10.88;;;;;;;9.06;88.32;100484.66;5101171;28;20086;-80
2021/05/26 08:33:51;;;;;;;14.27;11.13;;;;;;;8.92;88.18;100485.69;5099495;28;20043;-82
2021/05/26 08:36:16;;;;;;;14.73;10.52;;;;;;;9.35;86.76;100484.22;5105589;28;20537;-86
2021/05/26 08:38:43;;;;;;;13.45;10.20;;;;;;;9.80;86.80;100468.78;5107019;27;20045;-83
2021/05/26 08:41:09;;;;;;;9.68;8.70;;;;;;;10.14;84.08;100475.13;5127652;27;20045;-83
2021/05/26 08:43:37;;;;;;;10.73;8.77;;;;;;;9.96;82.61;100471.97;5117521;27;20324;-82
2021/05/26 08:46:03;;;;;;;10.88;9.75;;;;;;;10.09;84.53;100469.13;5099147;27;20108;-84
2021/05/26 08:48:30;;;;;;;11.02;8.95;;;;;;;10.25;81.44;100462.78;5086685;27;20022;-82
2021/05/26 08:50:56;;;;;;;13.80;9.60;;;;;;;10.32;83.59;100464.38;5090937;28;20039;-79
2021/05/26 08:53:21;;;;;;;11.95;9.30;;;;;;;10.47;83.22;100454.53;5098975;27;20092;-83
2021/05/26 08:55:46;;;;;;;9.55;8.57;;;;;;;10.53;83.34;100462.25;5094731;28;20031;-81
2021/05/26 08:58:12;;;;;;;10.60;8.73;;;;;;;10.84;80.94;100448.59;5101967;28;20072;-82
2021/05/26 09:00:37;;;;;;;10.45;8.10;;;;;;;11.23;77.93;100466.88;5095627;27;20031;-80
2021/05/26 09:03:06;;;;;;;8.25;7.18;;;;;;;11.14;77.39;100467.09;5107945;28;20107;-83
2021/05/26 09:05:34;;;;;;;9.32;8.02;;;;;;;11.32;77.60;100461.44;5098567;27;20072;-80
2021/05/26 09:08:18;;;;;;;9.63;6.90;;;;;;;11.16;72.30;100462.69;5103460;27;20046;-80
2021/05/26 09:10:53;;;;;;;6.60;6.00;;;;;;;11.35;74.75;100463.13;5080915;28;20088;-81
2021/05/26 09:13:35;;;;;;;8.25;7.43;;;;;;;11.38;76.90;100452.59;5104145;28;20027;-83
2021/05/26 09:16:03;;;;;;;7.78;6.97;;;;;;;11.35;75.45;100459.66;5098891;28;20044;-83
2021/05/26 09:18:28;;;;;;;7.22;6.47;;;;;;;11.18;74.67;100450.47;5097740;28;20020;-80
2021/05/26 09:20:56;;;;;;;7.93;6.55;;;;;;;10.97;76.32;100442.19;5115128;28;20024;-79
2021/05/26 09:23:29;;;;;;;6.20;5.55;;;;;;;11.24;75.95;100449.47;5104565;28;20027;-85
2021/05/26 09:25:59;;;;;;;6.78;6.18;;;;;;;10.99;76.69;100443.03;5081164;28;20031;-81
2021/05/26 09:28:35;;;;;;;8.63;6.20;;;;;;;10.61;77.08;100454.28;5098155;28;20023;-80
2021/05/26 09:31:04;;;;;;;11.45;6.03;;;;;;;10.57;77.22;100448.25;5099070;28;20339;-81
2021/05/26 09:33:52;;;;;;;9.07;5.93;;;;;;;10.15;80.34;100458.59;5097490;27;20023;-85
2021/05/26 09:36:22;;;;;;;6.68;5.70;;;;;;;9.81;81.82;100461.78;5108965;28;20312;-81
2021/05/26 09:38:52;;;;;;;9.35;6.47;;;;;;;9.58;85.30;100470.00;5126006;27;20030;-83
2021/05/26 09:41:19;;;;;;;6.88;5.65;;;;;;;9.67;83.34;100466.34;5118757;27;20124;-83
2021/05/26 09:43:47;;;;;;;7.60;6.05;;;;;;;10.02;84.99;100457.09;5084638;28;20028;-84
2021/05/26 09:46:33;;;;;;;5.93;5.50;;;;;;;10.52;84.27;100450.09;5098433;28;20028;-83
2021/05/26 09:49:16;;;;;;;9.15;5.30;;;;;;;10.86;82.67;100457.22;5111504;27;20024;-85
2021/05/26 09:51:45;;;;;;;8.77;5.95;;;;;;;10.79;81.09;100450.44;5100642;28;20054;-84
2021/05/26 09:54:22;;;;;;;7.72;5.20;;;;;;;10.63;80.89;100444.66;5118783;28;20019;-85
2021/05/26 09:56:52;;;;;;;7.25;5.93;;;;;;;11.09;81.25;100455.88;5100611;28;20022;-82
2021/05/26 09:59:22;;;;;;;6.03;4.38;;;;;;;11.06;77.39;100446.34;5099377;28;20023;-78
2021/05/26 10:01:47;;;;;;;6.47;4.55;;;;;;;11.16;78.07;100452.22;5098194;28;20027;-81
2021/05/26 10:04:24;;;;;;;5.20;4.70;;;;;;;10.90;80.73;100448.44;5108247;28;20023;-82
2021/05/26 10:06:53;;;;;;;5.65;4.88;;;;;;;11.12;79.34;100442.75;5106274;28;20458;-80
2021/05/26 10:09:21;;;;;;;6.70;4.70;;;;;;;10.70;78.79;100448.84;5103691;28;20407;-81
2021/05/26 10:11:47;;;;;;;7.57;4.85;;;;;;;10.41;80.66;100445.06;5114474;28;20137;-84
2021/05/26 10:14:12;;;;;;;6.65;5.10;;;;;;;11.13;79.85;100436.63;5098354;28;20035;-80
2021/05/26 10:16:42;;;;;;;6.63;4.47;;;;;;;11.49;75.21;100445.38;5097864;28;20323;-85
2021/05/26 10:19:08;;;;;;;4.88;3.90;;;;;;;11.71;74.38;100444.84;5094781;28;20034;-82
2021/05/26 10:21:33;;;;;;;6.38;4.28;;;;;;;11.65;75.79;100440.59;5104435;28;20023;-81
2021/05/26 10:24:00;;;;;;;3.83;3.17;;;;;;;11.37;73.84;100439.56;5108868;28;20030;-80
2021/05/26 10:26:54;;;;;;;3.55;3.25;;;;;;;11.56;73.58;100439.97;5106979;28;20023;-83
2021/05/26 10:29:26;;;;;;;5.30;3.58;;;;;;;11.74;72.64;100431.69;5115235;28;20016;-80
2021/05/26 10:31:51;;;;;;;3.75;2.63;;;;;;;12.06;74.29;100418.69;5099947;28;20023;-81
2021/05/26 10:34:17;;;;;;;3.58;2.60;;;;;;;12.23;72.29;100418.22;5095162;28;20098;-79
2021/05/26 10:36:52;;;;;;;2.65;2.53;;;;;;;13.00;70.99;100414.22;5106442;28;20026;-81
2021/05/26 10:39:36;;;;;;;3.42;2.38;;;;;;;14.33;65.78;100401.13;5108831;28;20026;-82
2021/05/26 10:42:03;;;;;;;2.95;2.75;;;;;;;13.58;65.98;100410.69;5104227;28;20048;-82
2021/05/26 10:45:01;;;;;;;4.20;2.80;;;;;;;14.36;62.88;100403.63;5088130;28;20019;-80
2021/05/26 10:47:36;;;;;;;3.58;2.72;;;;;;;13.79;66.18;100403.84;5121044;28;20177;-81
2021/05/26 10:50:03;;;;;;;2.67;2.47;;;;;;;14.58;64.80;100398.44;5118330;28;20023;-84
2021/05/26 10:52:28;;;;;;;5.07;2.72;;;;;;;14.43;63.95;100396.38;5099692;28;20034;-84
2021/05/26 10:54:54;;;;;;;6.90;2.42;;;;;;;15.29;60.51;100390.44;5108744;28;20028;-81
2021/05/26 10:57:19;;;;;;;3.92;2.70;;;;;;;15.17;57.88;100385.66;5100566;28;20418;-79
2021/05/26 11:00:21;;;;;;;5.32;2.38;;;;;;;15.68;55.30;100394.97;5118465;28;20020;-83
2021/05/26 11:03:25;;;;;;;2.95;2.50;;;;;;;15.96;54.58;100390.34;5095342;28;20035;-81
2021/05/26 11:05:54;;;;;;;4.13;2.30;;;;;;;15.17;56.90;100390.94;5103746;27;20126;-81
2021/05/26 11:08:28;;;;;;;2.40;2.20;;;;;;;15.16;56.11;100389.22;5126329;27;20419;-81
2021/05/26 11:10:53;;;;;;;3.22;2.38;;;;;;;14.35;56.86;100386.16;5122025;27;20023;-82
2021/05/26 11:13:18;;;;;;;7.05;3.25;;;;;;;13.40;59.83;100401.66;5115117;27;20023;-82
2021/05/26 11:15:45;;;;;;;2.70;2.08;;;;;;;13.22;62.10;100397.81;5120588;27;20053;-78
2021/05/26 11:18:22;;;;;;;2.90;2.70;;;;;;;12.68;64.80;100397.72;5113190;27;20027;-82
2021/05/26 11:20:47;;;;;;;5.03;2.05;;;;;;;12.44;67.56;100403.69;5094425;28;20027;-82
2021/05/26 11:23:14;;;;;;;3.25;2.95;;;;;;;12.26;68.60;100400.69;5083742;28;20023;-79
2021/05/26 11:26:00;;;;;;;3.00;2.75;;;;;;;11.73;73.23;100400.34;5097380;27;20019;-79
2021/05/26 11:28:35;;;;;;;3.58;3.20;;;;;;;11.49;74.34;100400.91;5091581;27;20035;-79
2021/05/26 11:31:10;;;;;;;3.45;2.88;;;;;;;11.66;73.81;100407.47;5095432;28;20038;-81